sensor_id;sensor_type;location;lat;lon;timestamp;pressure;altitude;pressure_sealevel;temperature;humidity
74615;BME280;63121;51.458;-0.110;2022-09-29T00:00:05;99915.00;;;9.00;71.60
74615;BME280;63121;51.458;-0.110;2022-09-29T00:02:30;99910.78;;;8.95;72.26
74615;BME280;63121;51.458;-0.110;2022-09-29T00:04:55;99916.03;;;8.89;72.04
74615;BME280;63121;51.458;-0.110;2022-09-29T00:07:21;99915.06;;;8.97;71.82
74615;BME280;63121;51.458;-0.110;2022-09-29T00:09:46;99926.31;;;8.91;72.03
74615;BME280;63121;51.458;-0.110;2022-09-29T00:12:12;99912.59;;;8.90;72.45
74615;BME280;63121;51.458;-0.110;2022-09-29T00:14:37;99913.34;;;8.95;71.98
74615;BME280;63121;51.458;-0.110;2022-09-29T00:17:02;99913.44;;;8.92;72.17
74615;BME280;63121;51.458;-0.110;2022-09-29T00:19:28;99917.88;;;8.81;72.23
74615;BME280;63121;51.458;-0.110;2022-09-29T00:21:53;99916.22;;;8.79;72.76
74615;BME280;63121;51.458;-0.110;2022-09-29T00:24:19;99912.81;;;8.77;72.80
74615;BME280;63121;51.458;-0.110;2022-09-29T00:26:44;99915.56;;;8.67;72.81
74615;BME280;63121;51.458;-0.110;2022-09-29T00:29:11;99913.72;;;8.74;73.03
74615;BME280;63121;51.458;-0.110;2022-09-29T00:31:36;99912.00;;;8.74;73.09
74615;BME280;63121;51.458;-0.110;2022-09-29T00:34:02;99913.09;;;8.61;72.99
74615;BME280;63121;51.458;-0.110;2022-09-29T00:36:28;99914.78;;;8.62;72.81
74615;BME280;63121;51.458;-0.110;2022-09-29T00:38:57;99910.44;;;8.64;72.82
74615;BME280;63121;51.458;-0.110;2022-09-29T00:41:32;99912.25;;;8.61;73.34
74615;BME280;63121;51.458;-0.110;2022-09-29T00:49:17;99905.44;;;8.57;73.34
74615;BME280;63121;51.458;-0.110;2022-09-29T00:52:08;99900.13;;;8.67;72.36
74615;BME280;63121;51.458;-0.110;2022-09-29T00:54:38;99906.22;;;8.62;72.35
74615;BME280;63121;51.458;-0.110;2022-09-29T00:57:07;99904.59;;;8.56;72.82
74615;BME280;63121;51.458;-0.110;2022-09-29T00:59:47;99909.69;;;8.59;72.30
74615;BME280;63121;51.458;-0.110;2022-09-29T01:02:15;99900.44;;;8.47;72.64
74615;BME280;63121;51.458;-0.110;2022-09-29T01:04:41;99898.63;;;8.54;72.38
74615;BME280;63121;51.458;-0.110;2022-09-29T01:07:08;99899.47;;;8.54;72.80
74615;BME280;63121;51.458;-0.110;2022-09-29T01:09:35;99896.06;;;8.54;72.18
74615;BME280;63121;51.458;-0.110;2022-09-29T01:12:03;99897.84;;;8.49;72.37
74615;BME280;63121;51.458;-0.110;2022-09-29T01:14:29;99891.09;;;8.43;72.62
74615;BME280;63121;51.458;-0.110;2022-09-29T01:16:56;99892.75;;;8.46;72.58
74615;BME280;63121;51.458;-0.110;2022-09-29T01:19:29;99885.06;;;8.44;72.82
74615;BME280;63121;51.458;-0.110;2022-09-29T01:27:17;99882.56;;;8.37;72.62
74615;BME280;63121;51.458;-0.110;2022-09-29T01:30:05;99881.88;;;8.25;72.77
74615;BME280;63121;51.458;-0.110;2022-09-29T01:35:15;99888.69;;;8.28;73.06
74615;BME280;63121;51.458;-0.110;2022-09-29T01:40:38;99880.13;;;8.29;73.27
74615;BME280;63121;51.458;-0.110;2022-09-29T01:43:08;99883.47;;;8.34;72.60
74615;BME280;63121;51.458;-0.110;2022-09-29T01:45:39;99883.56;;;8.26;73.61
74615;BME280;63121;51.458;-0.110;2022-09-29T01:48:35;99880.94;;;8.31;73.01
74615;BME280;63121;51.458;-0.110;2022-09-29T01:51:08;99877.56;;;8.27;73.22
74615;BME280;63121;51.458;-0.110;2022-09-29T01:53:41;99884.53;;;8.21;72.94
74615;BME280;63121;51.458;-0.110;2022-09-29T01:56:19;99882.72;;;8.27;72.98
74615;BME280;63121;51.458;-0.110;2022-09-29T01:58:55;99876.81;;;8.21;73.38
74615;BME280;63121;51.458;-0.110;2022-09-29T02:01:26;99881.88;;;8.25;73.13
74615;BME280;63121;51.458;-0.110;2022-09-29T02:04:00;99877.66;;;8.21;73.26
74615;BME280;63121;51.458;-0.110;2022-09-29T02:06:32;99873.34;;;8.23;73.28
74615;BME280;63121;51.458;-0.110;2022-09-29T02:09:07;99880.28;;;8.18;72.85
74615;BME280;63121;51.458;-0.110;2022-09-29T02:11:36;99885.44;;;8.17;73.46
74615;BME280;63121;51.458;-0.110;2022-09-29T02:14:10;99880.31;;;8.15;73.13
74615;BME280;63121;51.458;-0.110;2022-09-29T02:16:48;99882.81;;;8.20;73.04
74615;BME280;63121;51.458;-0.110;2022-09-29T02:19:26;99879.63;;;8.05;73.41
74615;BME280;63121;51.458;-0.110;2022-09-29T02:21:53;99877.97;;;8.00;73.96
74615;BME280;63121;51.458;-0.110;2022-09-29T02:24:20;99878.84;;;7.99;73.69
74615;BME280;63121;51.458;-0.110;2022-09-29T02:26:46;99885.53;;;8.10;73.82
74615;BME280;63121;51.458;-0.110;2022-09-29T02:29:12;99885.53;;;8.09;73.52
74615;BME280;63121;51.458;-0.110;2022-09-29T02:31:38;99885.34;;;8.23;73.29
74615;BME280;63121;51.458;-0.110;2022-09-29T02:34:05;99889.78;;;8.13;73.44
74615;BME280;63121;51.458;-0.110;2022-09-29T02:36:44;99889.78;;;8.11;73.57
74615;BME280;63121;51.458;-0.110;2022-09-29T02:56:23;99888.28;;;7.98;73.74
74615;BME280;63121;51.458;-0.110;2022-09-29T02:58:58;99882.28;;;7.99;74.13
74615;BME280;63121;51.458;-0.110;2022-09-29T03:01:29;99879.81;;;7.90;74.32
74615;BME280;63121;51.458;-0.110;2022-09-29T03:03:54;99872.00;;;7.98;74.00
74615;BME280;63121;51.458;-0.110;2022-09-29T03:06:20;99878.06;;;7.92;74.49
74615;BME280;63121;51.458;-0.110;2022-09-29T03:08:45;99879.13;;;7.77;74.59
74615;BME280;63121;51.458;-0.110;2022-09-29T03:11:10;99876.38;;;7.91;74.68
74615;BME280;63121;51.458;-0.110;2022-09-29T03:13:36;99872.03;;;7.94;73.95
74615;BME280;63121;51.458;-0.110;2022-09-29T03:16:01;99875.50;;;7.93;74.49
74615;BME280;63121;51.458;-0.110;2022-09-29T03:18:27;99884.09;;;7.91;74.10
74615;BME280;63121;51.458;-0.110;2022-09-29T03:20:53;99887.59;;;7.85;74.36
74615;BME280;63121;51.458;-0.110;2022-09-29T03:23:19;99888.50;;;7.80;75.08
74615;BME280;63121;51.458;-0.110;2022-09-29T03:25:45;99878.28;;;7.77;75.06
74615;BME280;63121;51.458;-0.110;2022-09-29T03:28:10;99877.47;;;7.73;75.07
74615;BME280;63121;51.458;-0.110;2022-09-29T03:30:36;99884.25;;;7.80;75.15
74615;BME280;63121;51.458;-0.110;2022-09-29T03:33:01;99880.00;;;7.76;74.91
74615;BME280;63121;51.458;-0.110;2022-09-29T03:35:26;99879.13;;;7.77;74.82
74615;BME280;63121;51.458;-0.110;2022-09-29T03:37:56;99883.44;;;7.73;75.65
74615;BME280;63121;51.458;-0.110;2022-09-29T03:40:22;99886.84;;;7.76;75.23
74615;BME280;63121;51.458;-0.110;2022-09-29T03:42:47;99889.34;;;7.82;75.20
74615;BME280;63121;51.458;-0.110;2022-09-29T03:45:13;99891.97;;;7.77;75.43
74615;BME280;63121;51.458;-0.110;2022-09-29T03:47:38;99889.47;;;7.72;75.24
74615;BME280;63121;51.458;-0.110;2022-09-29T03:50:04;99889.53;;;7.68;75.41
74615;BME280;63121;51.458;-0.110;2022-09-29T03:52:29;99884.34;;;7.69;75.40
74615;BME280;63121;51.458;-0.110;2022-09-29T03:54:54;99886.06;;;7.70;75.72
74615;BME280;63121;51.458;-0.110;2022-09-29T03:57:20;99885.31;;;7.64;75.73
74615;BME280;63121;51.458;-0.110;2022-09-29T03:59:45;99888.78;;;7.57;76.20
74615;BME280;63121;51.458;-0.110;2022-09-29T04:02:11;99889.59;;;7.62;75.90
74615;BME280;63121;51.458;-0.110;2022-09-29T04:04:36;99892.94;;;7.70;75.65
74615;BME280;63121;51.458;-0.110;2022-09-29T04:07:02;99900.66;;;7.68;75.69
74615;BME280;63121;51.458;-0.110;2022-09-29T04:09:27;99899.00;;;7.63;75.83
74615;BME280;63121;51.458;-0.110;2022-09-29T04:11:52;99901.50;;;7.69;76.08
74615;BME280;63121;51.458;-0.110;2022-09-29T04:14:18;99897.16;;;7.74;75.61
74615;BME280;63121;51.458;-0.110;2022-09-29T04:16:43;99902.19;;;7.82;75.30
74615;BME280;63121;51.458;-0.110;2022-09-29T04:19:08;99911.63;;;7.83;75.07
74615;BME280;63121;51.458;-0.110;2022-09-29T04:21:34;99909.88;;;7.83;75.30
74615;BME280;63121;51.458;-0.110;2022-09-29T04:23:59;99910.72;;;7.85;75.63
74615;BME280;63121;51.458;-0.110;2022-09-29T04:26:25;99917.56;;;7.86;75.08
74615;BME280;63121;51.458;-0.110;2022-09-29T04:28:50;99918.28;;;7.94;74.85
74615;BME280;63121;51.458;-0.110;2022-09-29T04:31:16;99925.91;;;8.01;74.65
74615;BME280;63121;51.458;-0.110;2022-09-29T04:33:41;99921.59;;;8.06;74.65
74615;BME280;63121;51.458;-0.110;2022-09-29T04:36:07;99924.88;;;8.15;74.10
74615;BME280;63121;51.458;-0.110;2022-09-29T04:38:32;99934.97;;;8.29;73.62
74615;BME280;63121;51.458;-0.110;2022-09-29T04:40:58;99932.19;;;8.45;73.47
74615;BME280;63121;51.458;-0.110;2022-09-29T04:43:23;99925.31;;;8.47;73.25
74615;BME280;63121;51.458;-0.110;2022-09-29T04:45:49;99926.09;;;8.52;73.01
74615;BME280;63121;51.458;-0.110;2022-09-29T04:48:14;99929.34;;;8.63;72.95
74615;BME280;63121;51.458;-0.110;2022-09-29T04:50:40;99938.69;;;8.69;72.86
74615;BME280;63121;51.458;-0.110;2022-09-29T04:53:06;99938.69;;;8.69;72.42
74615;BME280;63121;51.458;-0.110;2022-09-29T04:55:31;99936.03;;;8.73;72.59
74615;BME280;63121;51.458;-0.110;2022-09-29T04:57:57;99941.19;;;8.75;72.28
74615;BME280;63121;51.458;-0.110;2022-09-29T05:00:22;99942.66;;;8.88;72.02
74615;BME280;63121;51.458;-0.110;2022-09-29T05:02:48;99944.28;;;8.94;71.66
74615;BME280;63121;51.458;-0.110;2022-09-29T05:05:13;99953.69;;;8.97;71.49
74615;BME280;63121;51.458;-0.110;2022-09-29T05:07:39;99952.94;;;8.90;71.77
74615;BME280;63121;51.458;-0.110;2022-09-29T05:10:06;99957.09;;;8.97;71.33
74615;BME280;63121;51.458;-0.110;2022-09-29T05:12:32;99954.41;;;9.03;71.66
74615;BME280;63121;51.458;-0.110;2022-09-29T05:14:57;99955.22;;;9.07;71.19
74615;BME280;63121;51.458;-0.110;2022-09-29T05:17:22;99955.38;;;8.98;71.59
74615;BME280;63121;51.458;-0.110;2022-09-29T05:19:48;99960.47;;;9.01;71.61
74615;BME280;63121;51.458;-0.110;2022-09-29T05:22:13;99957.00;;;9.03;71.27
74615;BME280;63121;51.458;-0.110;2022-09-29T05:24:39;99958.66;;;9.07;71.09
74615;BME280;63121;51.458;-0.110;2022-09-29T05:27:04;99963.09;;;8.98;71.08
74615;BME280;63121;51.458;-0.110;2022-09-29T05:29:29;99957.84;;;9.02;71.34
74615;BME280;63121;51.458;-0.110;2022-09-29T05:31:55;99958.75;;;9.00;71.16
74615;BME280;63121;51.458;-0.110;2022-09-29T05:34:21;99960.41;;;9.05;71.55
74615;BME280;63121;51.458;-0.110;2022-09-29T05:36:46;99964.59;;;9.11;71.12
74615;BME280;63121;51.458;-0.110;2022-09-29T05:39:12;99961.88;;;9.19;71.32
74615;BME280;63121;51.458;-0.110;2022-09-29T05:41:37;99965.44;;;9.11;71.16
74615;BME280;63121;51.458;-0.110;2022-09-29T05:44:03;99955.81;;;9.21;71.10
74615;BME280;63121;51.458;-0.110;2022-09-29T05:46:29;99970.41;;;9.22;71.16
74615;BME280;63121;51.458;-0.110;2022-09-29T05:48:54;99961.78;;;9.25;70.99
74615;BME280;63121;51.458;-0.110;2022-09-29T05:51:23;99959.09;;;9.29;70.78
74615;BME280;63121;51.458;-0.110;2022-09-29T05:53:51;99963.59;;;9.20;71.01
74615;BME280;63121;51.458;-0.110;2022-09-29T05:56:19;99968.47;;;9.33;71.19
74615;BME280;63121;51.458;-0.110;2022-09-29T05:58:45;99971.97;;;9.29;70.89
74615;BME280;63121;51.458;-0.110;2022-09-29T06:01:14;99977.00;;;9.39;70.85
74615;BME280;63121;51.458;-0.110;2022-09-29T06:03:40;99982.28;;;9.29;70.57
74615;BME280;63121;51.458;-0.110;2022-09-29T06:06:08;99983.91;;;9.36;70.30
74615;BME280;63121;51.458;-0.110;2022-09-29T06:08:34;99982.97;;;9.39;70.46
74615;BME280;63121;51.458;-0.110;2022-09-29T06:11:07;99983.97;;;9.32;70.86
74615;BME280;63121;51.458;-0.110;2022-09-29T06:13:33;99989.09;;;9.33;70.40
74615;BME280;63121;51.458;-0.110;2022-09-29T06:16:01;99989.72;;;9.46;70.30
74615;BME280;63121;51.458;-0.110;2022-09-29T06:18:26;99994.94;;;9.42;70.08
74615;BME280;63121;51.458;-0.110;2022-09-29T06:20:52;99993.09;;;9.48;70.48
74615;BME280;63121;51.458;-0.110;2022-09-29T06:23:17;99986.91;;;9.59;69.89
74615;BME280;63121;51.458;-0.110;2022-09-29T06:25:43;99996.28;;;9.63;69.75
74615;BME280;63121;51.458;-0.110;2022-09-29T06:28:08;99991.91;;;9.68;69.86
74615;BME280;63121;51.458;-0.110;2022-09-29T06:30:33;100004.78;;;9.68;69.48
74615;BME280;63121;51.458;-0.110;2022-09-29T06:32:59;99999.53;;;9.72;70.00
74615;BME280;63121;51.458;-0.110;2022-09-29T06:35:24;100003.16;;;9.64;69.62
74615;BME280;63121;51.458;-0.110;2022-09-29T06:38:08;100006.47;;;9.69;69.75
74615;BME280;63121;51.458;-0.110;2022-09-29T06:40:34;100014.81;;;9.83;69.09
74615;BME280;63121;51.458;-0.110;2022-09-29T06:42:59;100006.22;;;9.83;69.08
74615;BME280;63121;51.458;-0.110;2022-09-29T06:45:25;100010.47;;;9.84;69.36
74615;BME280;63121;51.458;-0.110;2022-09-29T06:47:57;100019.03;;;9.87;69.39
74615;BME280;63121;51.458;-0.110;2022-09-29T06:50:22;100018.22;;;9.84;69.20
74615;BME280;63121;51.458;-0.110;2022-09-29T06:52:48;100020.59;;;9.94;69.14
74615;BME280;63121;51.458;-0.110;2022-09-29T06:55:14;100025.59;;;10.02;68.61
74615;BME280;63121;51.458;-0.110;2022-09-29T06:57:40;100029.84;;;10.05;69.06
74615;BME280;63121;51.458;-0.110;2022-09-29T07:00:06;100026.44;;;10.03;68.57
74615;BME280;63121;51.458;-0.110;2022-09-29T07:02:32;100029.47;;;10.23;68.19
74615;BME280;63121;51.458;-0.110;2022-09-29T07:04:57;100023.53;;;10.20;68.12
74615;BME280;63121;51.458;-0.110;2022-09-29T07:07:22;100016.63;;;10.20;68.54
74615;BME280;63121;51.458;-0.110;2022-09-29T07:09:48;100031.47;;;10.09;69.01
74615;BME280;63121;51.458;-0.110;2022-09-29T07:12:13;100026.00;;;10.24;68.86
74615;BME280;63121;51.458;-0.110;2022-09-29T07:14:39;100039.63;;;10.32;68.57
74615;BME280;63121;51.458;-0.110;2022-09-29T07:17:04;100040.47;;;10.33;68.13
74615;BME280;63121;51.458;-0.110;2022-09-29T07:19:30;100043.00;;;10.36;68.27
74615;BME280;63121;51.458;-0.110;2022-09-29T07:21:56;100042.03;;;10.42;68.15
74615;BME280;63121;51.458;-0.110;2022-09-29T07:24:22;100040.22;;;10.45;67.99
74615;BME280;63121;51.458;-0.110;2022-09-29T07:26:49;100042.84;;;10.44;67.82
74615;BME280;63121;51.458;-0.110;2022-09-29T07:29:14;100050.41;;;10.51;67.89
74615;BME280;63121;51.458;-0.110;2022-09-29T07:31:40;100038.41;;;10.50;67.52
74615;BME280;63121;51.458;-0.110;2022-09-29T07:34:05;100040.22;;;10.45;68.35
74615;BME280;63121;51.458;-0.110;2022-09-29T07:36:31;100049.78;;;10.42;68.44
74615;BME280;63121;51.458;-0.110;2022-09-29T07:38:57;100046.09;;;10.52;67.88
74615;BME280;63121;51.458;-0.110;2022-09-29T07:41:23;100050.28;;;10.57;67.94
74615;BME280;63121;51.458;-0.110;2022-09-29T07:43:49;100047.22;;;10.38;68.35
74615;BME280;63121;51.458;-0.110;2022-09-29T07:46:15;100049.78;;;10.42;68.15
74615;BME280;63121;51.458;-0.110;2022-09-29T07:48:41;100048.06;;;10.39;69.04
74615;BME280;63121;51.458;-0.110;2022-09-29T07:51:13;100050.75;;;10.75;67.69
74615;BME280;63121;51.458;-0.110;2022-09-29T07:53:39;100050.06;;;11.04;66.67
74615;BME280;63121;51.458;-0.110;2022-09-29T07:56:10;100053.41;;;11.09;66.54
74615;BME280;63121;51.458;-0.110;2022-09-29T07:58:37;100050.53;;;11.22;66.45
74615;BME280;63121;51.458;-0.110;2022-09-29T08:01:08;100055.88;;;11.14;65.94
74615;BME280;63121;51.458;-0.110;2022-09-29T08:03:41;100062.03;;;11.08;66.25
74615;BME280;63121;51.458;-0.110;2022-09-29T08:06:08;100060.75;;;11.26;66.24
74615;BME280;63121;51.458;-0.110;2022-09-29T08:08:40;100063.94;;;11.36;65.58
74615;BME280;63121;51.458;-0.110;2022-09-29T08:11:11;100069.34;;;11.61;65.50
74615;BME280;63121;51.458;-0.110;2022-09-29T08:13:38;100072.81;;;11.60;65.26
74615;BME280;63121;51.458;-0.110;2022-09-29T08:16:06;100078.59;;;11.70;65.10
74615;BME280;63121;51.458;-0.110;2022-09-29T08:18:34;100084.88;;;11.95;64.03
74615;BME280;63121;51.458;-0.110;2022-09-29T08:21:00;100086.53;;;11.96;64.18
74615;BME280;63121;51.458;-0.110;2022-09-29T08:23:27;100087.34;;;11.98;64.82
74615;BME280;63121;51.458;-0.110;2022-09-29T08:26:06;100093.69;;;12.19;63.63
74615;BME280;63121;51.458;-0.110;2022-09-29T08:28:34;100100.16;;;12.03;64.64
74615;BME280;63121;51.458;-0.110;2022-09-29T08:31:04;100089.84;;;12.33;63.53
74615;BME280;63121;51.458;-0.110;2022-09-29T08:33:30;100104.16;;;12.46;63.25
74615;BME280;63121;51.458;-0.110;2022-09-29T08:35:57;100096.94;;;12.56;63.45
74615;BME280;63121;51.458;-0.110;2022-09-29T08:38:26;100107.16;;;12.60;63.26
74615;BME280;63121;51.458;-0.110;2022-09-29T08:40:53;100113.22;;;12.31;63.78
74615;BME280;63121;51.458;-0.110;2022-09-29T08:43:26;100123.91;;;12.49;62.71
74615;BME280;63121;51.458;-0.110;2022-09-29T08:46:02;100115.56;;;12.69;62.29
74615;BME280;63121;51.458;-0.110;2022-09-29T08:48:37;100121.16;;;12.85;61.72
74615;BME280;63121;51.458;-0.110;2022-09-29T08:51:07;100124.00;;;13.05;61.70
74615;BME280;63121;51.458;-0.110;2022-09-29T08:53:41;100131.97;;;13.26;61.37
74615;BME280;63121;51.458;-0.110;2022-09-29T08:56:16;100137.41;;;13.18;61.31
74615;BME280;63121;51.458;-0.110;2022-09-29T08:58:42;100133.69;;;13.27;60.24
74615;BME280;63121;51.458;-0.110;2022-09-29T09:07:24;100136.66;;;13.14;61.25
74615;BME280;63121;51.458;-0.110;2022-09-29T09:09:59;100147.53;;;13.26;60.77
74615;BME280;63121;51.458;-0.110;2022-09-29T09:15:19;100159.91;;;13.46;60.62
74615;BME280;63121;51.458;-0.110;2022-09-29T09:21:00;100153.97;;;13.42;61.02
74615;BME280;63121;51.458;-0.110;2022-09-29T09:26:45;100165.38;;;14.15;58.54
74615;BME280;63121;51.458;-0.110;2022-09-29T09:29:17;100166.97;;;14.19;58.52
74615;BME280;63121;51.458;-0.110;2022-09-29T09:31:53;100169.13;;;14.31;57.93
74615;BME280;63121;51.458;-0.110;2022-09-29T09:34:26;100175.59;;;14.44;57.82
74615;BME280;63121;51.458;-0.110;2022-09-29T09:36:57;100184.47;;;14.86;56.83
74615;BME280;63121;51.458;-0.110;2022-09-29T09:39:34;100191.97;;;15.17;55.84
74615;BME280;63121;51.458;-0.110;2022-09-29T09:42:06;100188.53;;;15.17;56.28
74615;BME280;63121;51.458;-0.110;2022-09-29T09:44:39;100196.50;;;15.34;55.91
74615;BME280;63121;51.458;-0.110;2022-09-29T09:47:23;100193.56;;;15.43;55.64
74615;BME280;63121;51.458;-0.110;2022-09-29T09:57:47;100197.66;;;16.34;53.40
74615;BME280;63121;51.458;-0.110;2022-09-29T10:00:38;100200.63;;;16.45;52.64
74615;BME280;63121;51.458;-0.110;2022-09-29T10:03:07;100192.00;;;16.64;53.23
74615;BME280;63121;51.458;-0.110;2022-09-29T10:05:39;100206.44;;;16.71;52.81
74615;BME280;63121;51.458;-0.110;2022-09-29T10:08:08;100206.72;;;16.65;52.32
74615;BME280;63121;51.458;-0.110;2022-09-29T10:10:34;100208.81;;;16.57;53.11
74615;BME280;63121;51.458;-0.110;2022-09-29T10:13:04;100204.22;;;16.43;53.02
74615;BME280;63121;51.458;-0.110;2022-09-29T10:15:33;100212.03;;;16.43;53.27
74615;BME280;63121;51.458;-0.110;2022-09-29T10:20:37;100218.84;;;16.66;52.20
74615;BME280;63121;51.458;-0.110;2022-09-29T10:23:30;100225.16;;;16.60;52.38
74615;BME280;63121;51.458;-0.110;2022-09-29T10:26:08;100218.97;;;16.83;51.93
74615;BME280;63121;51.458;-0.110;2022-09-29T10:28:46;100220.38;;;16.91;51.47
74615;BME280;63121;51.458;-0.110;2022-09-29T10:31:23;100223.41;;;16.81;51.65
74615;BME280;63121;51.458;-0.110;2022-09-29T10:33:54;100221.13;;;16.93;51.45
74615;BME280;63121;51.458;-0.110;2022-09-29T10:36:22;100224.06;;;17.05;50.22
74615;BME280;63121;51.458;-0.110;2022-09-29T10:38:50;100226.16;;;16.97;50.56
74615;BME280;63121;51.458;-0.110;2022-09-29T10:41:16;100233.75;;;17.40;49.51
74615;BME280;63121;51.458;-0.110;2022-09-29T10:43:45;100233.06;;;17.36;49.77
74615;BME280;63121;51.458;-0.110;2022-09-29T10:46:35;100236.00;;;17.47;49.89
74615;BME280;63121;51.458;-0.110;2022-09-29T10:49:24;100237.94;;;17.06;50.99
74615;BME280;63121;51.458;-0.110;2022-09-29T10:52:03;100244.84;;;17.07;51.45
74615;BME280;63121;51.458;-0.110;2022-09-29T10:54:33;100243.28;;;17.03;51.36
74615;BME280;63121;51.458;-0.110;2022-09-29T10:57:10;100245.06;;;17.21;51.34
74615;BME280;63121;51.458;-0.110;2022-09-29T10:59:50;100251.81;;;16.88;51.38
74615;BME280;63121;51.458;-0.110;2022-09-29T11:02:22;100260.03;;;16.58;52.04
74615;BME280;63121;51.458;-0.110;2022-09-29T11:04:51;100264.06;;;16.85;51.75
74615;BME280;63121;51.458;-0.110;2022-09-29T11:07:18;100270.69;;;17.12;51.66
74615;BME280;63121;51.458;-0.110;2022-09-29T11:09:44;100262.06;;;16.91;51.67
74615;BME280;63121;51.458;-0.110;2022-09-29T11:12:34;100265.88;;;16.83;51.91
74615;BME280;63121;51.458;-0.110;2022-09-29T11:15:21;100262.69;;;17.16;50.17
74615;BME280;63121;51.458;-0.110;2022-09-29T11:17:49;100264.28;;;16.79;51.12
74615;BME280;63121;51.458;-0.110;2022-09-29T11:20:15;100264.44;;;17.16;50.16
74615;BME280;63121;51.458;-0.110;2022-09-29T11:28:02;100273.16;;;17.53;48.56
74615;BME280;63121;51.458;-0.110;2022-09-29T11:30:51;100268.31;;;17.45;48.16
74615;BME280;63121;51.458;-0.110;2022-09-29T11:33:42;100276.97;;;17.45;49.10
74615;BME280;63121;51.458;-0.110;2022-09-29T11:42:08;100277.59;;;17.88;48.78
74615;BME280;63121;51.458;-0.110;2022-09-29T11:45:04;100287.63;;;18.15;47.42
74615;BME280;63121;51.458;-0.110;2022-09-29T11:55:53;100292.28;;;17.53;48.19
74615;BME280;63121;51.458;-0.110;2022-09-29T12:09:31;100315.03;;;17.68;46.83
74615;BME280;63121;51.458;-0.110;2022-09-29T12:14:59;100305.94;;;17.96;47.37
74615;BME280;63121;51.458;-0.110;2022-09-29T12:17:30;100310.78;;;18.21;45.94
74615;BME280;63121;51.458;-0.110;2022-09-29T12:20:31;100308.09;;;18.05;46.33
74615;BME280;63121;51.458;-0.110;2022-09-29T12:23:01;100307.09;;;18.25;46.11
74615;BME280;63121;51.458;-0.110;2022-09-29T12:25:31;100306.78;;;17.97;46.44
74615;BME280;63121;51.458;-0.110;2022-09-29T12:28:14;100309.16;;;18.01;45.56
74615;BME280;63121;51.458;-0.110;2022-09-29T12:30:48;100314.03;;;18.44;44.73
74615;BME280;63121;51.458;-0.110;2022-09-29T12:33:34;100308.28;;;18.72;44.17
74615;BME280;63121;51.458;-0.110;2022-09-29T12:42:06;100313.09;;;18.10;44.08
74615;BME280;63121;51.458;-0.110;2022-09-29T12:50:29;100312.56;;;18.21;44.94
74615;BME280;63121;51.458;-0.110;2022-09-29T12:53:02;100309.59;;;18.28;44.15
74615;BME280;63121;51.458;-0.110;2022-09-29T12:58:14;100301.22;;;17.85;45.45
74615;BME280;63121;51.458;-0.110;2022-09-29T13:00:50;100312.94;;;17.58;45.94
74615;BME280;63121;51.458;-0.110;2022-09-29T13:03:23;100315.19;;;17.65;45.87
74615;BME280;63121;51.458;-0.110;2022-09-29T13:08:33;100304.81;;;17.64;45.21
74615;BME280;63121;51.458;-0.110;2022-09-29T13:29:23;100333.41;;;18.92;41.57
74615;BME280;63121;51.458;-0.110;2022-09-29T13:31:50;100334.41;;;18.55;41.14
74615;BME280;63121;51.458;-0.110;2022-09-29T13:34:37;100329.66;;;18.28;41.24
74615;BME280;63121;51.458;-0.110;2022-09-29T13:37:17;100343.94;;;18.38;41.03
74615;BME280;63121;51.458;-0.110;2022-09-29T13:40:05;100339.63;;;18.37;40.31
74615;BME280;63121;51.458;-0.110;2022-09-29T13:50:48;100350.56;;;20.26;35.55
74615;BME280;63121;51.458;-0.110;2022-09-29T13:58:26;100349.22;;;21.66;33.78
74615;BME280;63121;51.458;-0.110;2022-09-29T14:00:54;100356.38;;;22.18;33.52
74615;BME280;63121;51.458;-0.110;2022-09-29T14:03:23;100355.13;;;22.64;32.15
74615;BME280;63121;51.458;-0.110;2022-09-29T14:05:54;100354.84;;;23.32;31.40
74615;BME280;63121;51.458;-0.110;2022-09-29T14:08:28;100352.00;;;23.72;30.59
74615;BME280;63121;51.458;-0.110;2022-09-29T14:11:11;100361.22;;;24.04;29.94
74615;BME280;63121;51.458;-0.110;2022-09-29T14:13:44;100363.59;;;22.69;32.29
74615;BME280;63121;51.458;-0.110;2022-09-29T14:16:24;100369.84;;;21.86;33.58
74615;BME280;63121;51.458;-0.110;2022-09-29T14:27:34;100360.19;;;19.62;38.08
74615;BME280;63121;51.458;-0.110;2022-09-29T14:32:41;100370.53;;;21.18;34.32
74615;BME280;63121;51.458;-0.110;2022-09-29T14:35:36;100369.19;;;23.16;29.30
74615;BME280;63121;51.458;-0.110;2022-09-29T14:38:19;100381.06;;;24.21;28.07
74615;BME280;63121;51.458;-0.110;2022-09-29T14:43:47;100381.91;;;22.96;28.57
74615;BME280;63121;51.458;-0.110;2022-09-29T14:57:50;100386.03;;;19.86;34.54
74615;BME280;63121;51.458;-0.110;2022-09-29T15:00:29;100398.63;;;19.46;35.56
74615;BME280;63121;51.458;-0.110;2022-09-29T15:02:58;100398.25;;;19.36;37.10
74615;BME280;63121;51.458;-0.110;2022-09-29T15:05:31;100407.25;;;19.48;37.16
74615;BME280;63121;51.458;-0.110;2022-09-29T15:07:59;100402.22;;;19.43;37.31
74615;BME280;63121;51.458;-0.110;2022-09-29T15:10:28;100399.59;;;20.24;36.94
74615;BME280;63121;51.458;-0.110;2022-09-29T15:13:23;100403.06;;;22.82;31.51
74615;BME280;63121;51.458;-0.110;2022-09-29T15:15:55;100404.91;;;23.32;29.95
74615;BME280;63121;51.458;-0.110;2022-09-29T15:26:32;100409.31;;;26.68;24.88
74615;BME280;63121;51.458;-0.110;2022-09-29T15:28:58;100411.53;;;27.36;23.92
74615;BME280;63121;51.458;-0.110;2022-09-29T15:31:30;100411.69;;;27.44;23.01
74615;BME280;63121;51.458;-0.110;2022-09-29T15:33:58;100409.88;;;27.14;23.80
74615;BME280;63121;51.458;-0.110;2022-09-29T15:36:26;100413.38;;;27.45;23.53
74615;BME280;63121;51.458;-0.110;2022-09-29T15:38:57;100412.31;;;28.17;21.93
74615;BME280;63121;51.458;-0.110;2022-09-29T15:41:24;100421.81;;;28.10;21.52
74615;BME280;63121;51.458;-0.110;2022-09-29T15:43:53;100424.75;;;28.17;21.33
74615;BME280;63121;51.458;-0.110;2022-09-29T15:51:28;100432.88;;;28.45;21.73
74615;BME280;63121;51.458;-0.110;2022-09-29T15:53:54;100429.25;;;28.36;22.10
74615;BME280;63121;51.458;-0.110;2022-09-29T15:56:20;100430.41;;;27.01;24.10
74615;BME280;63121;51.458;-0.110;2022-09-29T15:58:45;100441.50;;;24.72;27.13
74615;BME280;63121;51.458;-0.110;2022-09-29T16:01:13;100426.88;;;25.37;26.58
74615;BME280;63121;51.458;-0.110;2022-09-29T16:03:50;100437.06;;;24.48;28.00